Terminal Aerodrome Forecast
Issued by NWS

Home | Current Version | Previous Version | Text Only | Print | Product List | Glossary On
Versions: 1 2 3 4 5 6 7 8 9 10 11 12 13 14 15 16 17 18
000
FTUS43 KILX 292330
TAFCMI
TAF
KCMI 292330Z 3000/3024 36008KT P6SM VCSH SCT015 BKN045
     FM300600 01008KT P6SM BKN020
     FM300900 01009KT 5SM BR VCSH OVC008
     FM301700 03013KT 4SM -SHRA BR SCT008 OVC015=

USA.gov is the U.S. government's official web portal to all federal, state and local government web resources and services.